Time;durP1;ratioP1;P1;durP2;ratioP2;P2;SDS_P1;SDS_P2;PMS_P1;PMS_P2;Temp;Humidity;BMP_temperature;BMP_pressure;BME280_temperature;BME280_humidity;BME280_pressure;Samples;Min_cycle;Max_cycle;Signal;HPM_P1;HPM_P2
2021/03/06 05:58:48;;;;;;;12.33;7.50;;;-6.10;95.30;;;;;;6192858;22;20375;-95
2021/03/06 06:52:24;;;;;;;11.93;7.20;;;-5.20;95.60;;;;;;6207405;22;20395;-95
2021/03/06 06:54:59;;;;;;;12.10;7.80;;;-5.00;95.30;;;;;;6196394;23;20474;-94
2021/03/06 06:57:26;;;;;;;17.02;9.32;;;-4.80;95.00;;;;;;6198455;23;20828;-95
2021/03/06 07:34:01;;;;;;;7.68;4.53;;;-1.20;82.20;;;;;;6203662;22;20386;-96
2021/03/06 07:42:01;;;;;;;6.68;3.90;;;-1.40;84.00;;;;;;6231899;22;20434;-94
2021/03/06 07:44:33;;;;;;;8.80;4.22;;;-1.20;84.30;;;;;;6228759;23;20422;-95
2021/03/06 07:48:14;;;;;;;8.18;4.32;;;-1.00;83.50;;;;;;6205727;23;20388;-94
2021/03/06 07:51:16;;;;;;;7.60;4.10;;;-0.70;83.60;;;;;;6218965;22;20384;-93
2021/03/06 07:54:22;;;;;;;10.73;4.45;;;-0.30;82.60;;;;;;6193036;23;20399;-90
2021/03/06 07:58:09;;;;;;;7.38;4.45;;;-0.20;78.20;;;;;;6176534;23;20486;-91
2021/03/06 08:02:04;;;;;;;5.97;3.40;;;-0.30;79.60;;;;;;6111463;23;20426;-96
2021/03/06 08:05:50;;;;;;;10.77;3.58;;;-0.50;79.50;;;;;;5986336;23;20389;-93
2021/03/06 08:09:49;;;;;;;7.88;3.40;;;-0.80;79.70;;;;;;5832278;24;20404;-95
2021/03/06 08:13:29;;;;;;;8.30;3.78;;;-1.10;79.70;;;;;;5856347;24;20499;-93
2021/03/06 08:17:12;;;;;;;8.40;4.00;;;-1.40;84.20;;;;;;5858626;24;20398;-93
2021/03/06 08:24:46;;;;;;;9.70;5.03;;;-1.50;83.30;;;;;;6127860;23;20383;-93
2021/03/06 08:41:14;;;;;;;9.20;5.18;;;-1.30;79.90;;;;;;6140013;23;20866;-92
2021/03/06 08:43:46;;;;;;;8.00;5.07;;;-0.80;79.70;;;;;;6130898;23;20404;-96
2021/03/06 08:46:13;;;;;;;7.55;4.95;;;-0.60;77.80;;;;;;6111730;23;20402;-96
2021/03/06 08:48:46;;;;;;;9.45;5.72;;;-0.60;78.40;;;;;;6111994;23;20404;-93
2021/03/06 08:51:18;;;;;;;9.57;5.40;;;-0.50;81.60;;;;;;6088559;23;20419;-93
2021/03/06 08:53:59;;;;;;;8.68;4.88;;;-0.20;80.80;;;;;;6134464;23;20399;-94
2021/03/06 08:56:39;;;;;;;9.03;4.67;;;0.00;75.40;;;;;;6084999;23;20393;-96
2021/03/06 08:59:07;;;;;;;7.93;4.60;;;-0.10;73.30;;;;;;6132289;23;20471;-95
2021/03/06 09:01:35;;;;;;;7.07;4.78;;;-0.10;76.20;;;;;;6132668;23;20393;-95
2021/03/06 09:04:13;;;;;;;6.65;4.40;;;0.00;78.00;;;;;;6135528;23;20392;-96
2021/03/06 09:07:01;;;;;;;7.63;4.40;;;0.50;75.00;;;;;;6149373;23;20397;-94
2021/03/06 09:09:35;;;;;;;6.22;4.00;;;0.80;72.90;;;;;;6151299;23;20373;-92
2021/03/06 09:12:03;;;;;;;7.25;4.10;;;0.40;69.30;;;;;;6101645;23;20405;-94
2021/03/06 09:14:40;;;;;;;8.52;5.00;;;0.30;67.40;;;;;;6177060;23;20450;-96
2021/03/06 09:17:17;;;;;;;7.30;3.90;;;0.50;74.40;;;;;;6230027;23;20420;-92
2021/03/06 09:24:45;;;;;;;7.85;4.47;;;1.40;62.40;;;;;;6092490;23;20394;-93
2021/03/06 09:27:57;;;;;;;5.72;3.35;;;2.10;66.10;;;;;;6097382;23;20375;-93
2021/03/06 09:31:07;;;;;;;7.55;4.07;;;2.10;58.80;;;;;;6098114;23;20422;-94
2021/03/06 09:34:16;;;;;;;7.13;2.83;;;2.40;62.90;;;;;;6113534;23;20390;-95
2021/03/06 09:37:18;;;;;;;3.30;2.43;;;1.90;52.10;;;;;;6101397;23;20390;-92
2021/03/06 09:39:45;;;;;;;4.85;2.60;;;1.70;58.30;;;;;;6073305;23;20394;-91
2021/03/06 09:42:17;;;;;;;5.18;3.20;;;1.80;51.90;;;;;;6098523;23;20401;-92
2021/03/06 09:44:49;;;;;;;4.97;3.05;;;1.60;56.50;;;;;;6073276;23;20396;-93
2021/03/06 09:47:25;;;;;;;5.72;3.00;;;1.50;60.60;;;;;;6073218;23;20405;-95
2021/03/06 09:49:55;;;;;;;4.43;3.00;;;1.30;52.90;;;;;;6072846;23;20394;-94
2021/03/06 09:52:32;;;;;;;4.65;3.30;;;1.20;51.60;;;;;;6073006;23;20950;-96
2021/03/06 09:54:59;;;;;;;5.90;3.30;;;1.30;55.30;;;;;;6071578;23;20414;-91
2021/03/06 09:57:26;;;;;;;3.20;2.17;;;1.50;60.10;;;;;;6073951;23;20461;-93
2021/03/06 10:00:26;;;;;;;4.70;2.63;;;1.40;47.00;;;;;;6126005;23;20378;-94
2021/03/06 10:03:35;;;;;;;5.25;3.22;;;1.30;52.80;;;;;;6142483;23;20932;-95
2021/03/06 10:06:37;;;;;;;4.28;3.15;;;1.20;57.10;;;;;;6087091;23;20482;-92
2021/03/06 10:09:55;;;;;;;5.57;3.35;;;1.20;57.00;;;;;;6126562;23;20393;-93
2021/03/06 10:15:46;;;;;;;5.70;3.23;;;1.30;56.60;;;;;;6234606;22;20408;-93
2021/03/06 10:18:13;;;;;;;6.28;4.00;;;1.40;55.50;;;;;;6245751;22;20392;-94
2021/03/06 10:20:41;;;;;;;5.20;3.40;;;1.70;61.70;;;;;;6245946;22;20394;-92
2021/03/06 10:23:08;;;;;;;6.63;4.23;;;1.70;52.10;;;;;;6234094;23;20390;-92
2021/03/06 10:25:34;;;;;;;5.75;3.60;;;1.80;54.70;;;;;;6220594;23;20404;-93
2021/03/06 10:28:10;;;;;;;4.88;3.08;;;1.70;55.70;;;;;;6222174;23;20393;-96
2021/03/06 10:30:39;;;;;;;4.97;3.28;;;1.80;51.90;;;;;;6219517;23;20449;-94
2021/03/06 10:33:19;;;;;;;5.53;3.20;;;2.10;51.70;;;;;;6219000;23;20420;-94
2021/03/06 10:35:51;;;;;;;9.45;3.97;;;2.00;48.80;;;;;;6218913;23;20440;-94
2021/03/06 10:38:24;;;;;;;6.93;3.30;;;1.80;56.60;;;;;;6219128;23;20474;-92
2021/03/06 10:41:02;;;;;;;5.70;3.50;;;1.80;54.00;;;;;;6219707;23;20390;-93
2021/03/06 10:43:36;;;;;;;4.75;3.60;;;1.60;56.90;;;;;;6219680;23;20390;-94
2021/03/06 10:46:20;;;;;;;7.25;3.90;;;1.50;56.30;;;;;;6219732;23;20377;-91
2021/03/06 10:48:56;;;;;;;5.32;3.58;;;1.90;59.80;;;;;;6219629;23;20452;-92
2021/03/06 10:51:24;;;;;;;6.93;4.20;;;2.40;51.20;;;;;;6218682;23;20481;-94
2021/03/06 10:54:04;;;;;;;5.07;3.53;;;2.60;53.50;;;;;;6219278;23;20934;-94
2021/03/06 10:56:32;;;;;;;6.05;3.55;;;2.50;54.20;;;;;;6233531;22;20389;-93
2021/03/06 10:58:59;;;;;;;5.95;3.55;;;2.40;50.70;;;;;;6245700;22;20369;-91
2021/03/06 11:01:51;;;;;;;4.97;3.60;;;2.10;53.60;;;;;;6242080;23;20493;-92
2021/03/06 11:04:29;;;;;;;5.43;3.28;;;1.90;53.30;;;;;;6233497;23;20420;-94
2021/03/06 11:06:58;;;;;;;5.32;3.40;;;2.30;50.40;;;;;;6218695;23;20417;-93
2021/03/06 11:09:27;;;;;;;5.03;3.80;;;2.70;53.70;;;;;;6218894;23;20390;-91
2021/03/06 11:11:54;;;;;;;6.10;2.92;;;3.00;51.40;;;;;;6218791;23;20875;-92
2021/03/06 11:14:24;;;;;;;6.07;3.47;;;3.00;48.40;;;;;;6218572;22;20417;-93
2021/03/06 11:16:51;;;;;;;6.38;3.40;;;2.60;51.70;;;;;;6220801;23;20382;-95
2021/03/06 11:19:18;;;;;;;6.85;3.70;;;2.50;52.20;;;;;;6222763;23;20392;-96
2021/03/06 11:21:45;;;;;;;6.03;3.85;;;2.40;51.40;;;;;;6238535;22;20401;-95
2021/03/06 11:24:13;;;;;;;5.53;3.60;;;2.50;50.30;;;;;;6247480;22;20394;-94
2021/03/06 11:26:40;;;;;;;6.07;4.03;;;2.80;51.90;;;;;;6227858;23;20465;-93
2021/03/06 11:29:07;;;;;;;7.20;3.35;;;3.60;52.10;;;;;;6221166;23;20851;-95
2021/03/06 11:31:52;;;;;;;5.93;3.70;;;4.00;46.30;;;;;;6223944;23;20385;-93
2021/03/06 11:34:18;;;;;;;5.22;3.40;;;3.90;52.40;;;;;;6220704;23;20388;-94
2021/03/06 11:36:50;;;;;;;5.82;3.88;;;4.00;47.00;;;;;;6221200;23;20425;-94
2021/03/06 11:39:17;;;;;;;5.90;3.53;;;3.70;51.20;;;;;;6220362;23;20405;-94
2021/03/06 11:41:46;;;;;;;5.15;3.40;;;4.00;50.50;;;;;;6221166;23;21016;-94
2021/03/06 11:44:13;;;;;;;5.63;3.50;;;4.50;46.10;;;;;;6221488;23;20489;-94
2021/03/06 11:46:39;;;;;;;5.30;3.60;;;4.70;45.90;;;;;;6220841;23;20386;-95
2021/03/06 11:49:07;;;;;;;5.63;3.45;;;4.90;44.00;;;;;;6220712;23;20386;-92
2021/03/06 11:51:34;;;;;;;4.85;3.40;;;4.60;45.50;;;;;;6220585;23;20412;-93
2021/03/06 11:54:02;;;;;;;5.78;3.45;;;4.50;50.90;;;;;;6220853;23;20386;-92
2021/03/06 11:56:29;;;;;;;5.57;3.60;;;4.40;50.50;;;;;;6227787;23;20412;-94
2021/03/06 11:59:14;;;;;;;5.20;3.65;;;3.70;44.90;;;;;;6253461;23;20378;-93
2021/03/06 12:01:53;;;;;;;6.75;3.65;;;3.60;50.50;;;;;;6228272;23;20398;-93
2021/03/06 12:04:50;;;;;;;7.22;3.65;;;4.20;49.40;;;;;;6230336;23;20410;-94
2021/03/06 12:07:33;;;;;;;5.72;3.70;;;4.90;48.70;;;;;;6137551;23;20387;-93
2021/03/06 12:10:06;;;;;;;6.78;3.85;;;4.90;50.00;;;;;;6133652;23;20373;-91
2021/03/06 12:13:03;;;;;;;5.35;3.20;;;5.50;48.90;;;;;;6133551;23;20407;-91
2021/03/06 12:15:42;;;;;;;5.68;3.10;;;5.80;44.20;;;;;;6130418;23;20393;-91
2021/03/06 12:18:14;;;;;;;5.20;3.55;;;5.20;41.80;;;;;;6133371;23;20461;-91
2021/03/06 12:20:48;;;;;;;7.57;4.20;;;4.50;47.10;;;;;;6110000;23;20866;-91
2021/03/06 12:23:31;;;;;;;7.10;3.70;;;4.30;48.40;;;;;;6109513;23;20385;-90
2021/03/06 12:26:08;;;;;;;6.05;3.53;;;4.60;49.70;;;;;;6133771;23;20419;-90
2021/03/06 12:28:41;;;;;;;6.53;4.05;;;4.60;46.60;;;;;;6131928;23;20381;-90
2021/03/06 12:31:13;;;;;;;6.10;3.58;;;5.10;49.70;;;;;;6111524;23;20395;-90
2021/03/06 12:34:08;;;;;;;7.63;4.60;;;5.90;43.20;;;;;;6112643;23;20384;-91
2021/03/06 12:36:38;;;;;;;6.35;3.63;;;6.70;43.50;;;;;;6107689;23;20456;-90
2021/03/06 12:39:19;;;;;;;7.20;3.50;;;6.70;42.70;;;;;;6205147;23;20421;-92
2021/03/06 12:41:46;;;;;;;5.22;3.33;;;6.10;46.70;;;;;;6218111;23;20414;-93
2021/03/06 12:44:12;;;;;;;6.93;3.20;;;6.00;45.60;;;;;;6236194;22;20372;-92
2021/03/06 12:46:39;;;;;;;5.30;3.55;;;5.80;40.00;;;;;;6240694;22;20446;-92
2021/03/06 12:49:06;;;;;;;5.15;3.17;;;5.60;45.00;;;;;;6234880;23;20398;-93
2021/03/06 12:51:32;;;;;;;5.57;3.50;;;5.30;40.80;;;;;;6230247;23;20437;-94
2021/03/06 12:54:00;;;;;;;5.65;3.50;;;4.60;45.60;;;;;;6214952;23;20860;-94
2021/03/06 12:56:27;;;;;;;5.72;3.15;;;5.10;48.20;;;;;;6216340;23;20931;-94
2021/03/06 12:58:55;;;;;;;5.30;3.13;;;5.20;46.50;;;;;;6191484;23;20541;-94
2021/03/06 13:01:37;;;;;;;8.50;5.03;;;5.80;44.30;;;;;;6195750;23;20414;-96
2021/03/06 13:04:19;;;;;;;4.78;2.95;;;6.70;43.10;;;;;;6149934;23;20703;-96
2021/03/06 13:06:49;;;;;;;4.73;3.13;;;7.30;43.00;;;;;;6174759;23;20884;-96
2021/03/06 13:09:18;;;;;;;5.32;3.20;;;6.80;45.10;;;;;;6196155;23;20371;-92
2021/03/06 13:11:55;;;;;;;5.25;3.40;;;6.40;43.70;;;;;;6222793;23;20394;-91
2021/03/06 13:14:21;;;;;;;5.53;3.33;;;6.10;45.80;;;;;;6212095;23;20382;-93
2021/03/06 13:16:48;;;;;;;5.55;3.20;;;6.40;41.50;;;;;;6212156;23;20397;-91
2021/03/06 13:19:15;;;;;;;5.45;3.40;;;6.60;44.30;;;;;;6193519;23;20866;-96
2021/03/06 13:21:42;;;;;;;6.38;3.30;;;7.10;42.20;;;;;;6220238;23;20403;-91
2021/03/06 13:24:09;;;;;;;6.63;3.20;;;7.60;42.00;;;;;;6192927;23;20384;-93
2021/03/06 13:26:35;;;;;;;5.38;2.83;;;8.20;38.90;;;;;;6193390;23;20430;-92
2021/03/06 13:29:02;;;;;;;4.10;3.10;;;8.40;38.00;;;;;;6191580;23;20390;-92
2021/03/06 13:31:33;;;;;;;5.88;2.90;;;8.30;38.10;;;;;;6220734;23;20387;-92
2021/03/06 13:34:00;;;;;;;4.10;3.00;;;8.00;40.00;;;;;;6169268;23;20360;-91
2021/03/06 13:36:28;;;;;;;4.27;2.93;;;7.20;40.40;;;;;;6216701;23;20388;-91
2021/03/06 13:38:55;;;;;;;5.85;3.30;;;7.10;40.00;;;;;;6191427;23;20379;-92
2021/03/06 13:41:21;;;;;;;5.05;3.05;;;7.00;40.50;;;;;;6191260;23;20399;-92
2021/03/06 13:43:48;;;;;;;4.80;2.92;;;7.40;41.60;;;;;;6191837;23;20390;-94
2021/03/06 13:46:16;;;;;;;5.32;3.17;;;7.50;37.00;;;;;;6218969;23;20398;-95
2021/03/06 13:48:43;;;;;;;5.38;3.08;;;7.50;42.70;;;;;;6193747;23;20391;-94
2021/03/06 13:51:10;;;;;;;4.68;3.30;;;8.40;40.00;;;;;;6193925;23;20442;-92
2021/03/06 13:53:36;;;;;;;5.55;3.15;;;9.00;40.90;;;;;;6193791;23;20387;-92
2021/03/06 13:56:04;;;;;;;5.53;3.17;;;9.20;37.80;;;;;;6224897;23;20376;-93
2021/03/06 13:58:31;;;;;;;4.30;2.90;;;9.30;37.30;;;;;;6216292;23;20376;-93
2021/03/06 14:00:58;;;;;;;7.50;3.45;;;9.20;34.90;;;;;;6215955;23;20458;-90
2021/03/06 14:03:41;;;;;;;7.07;3.28;;;8.00;36.30;;;;;;6219659;23;20406;-93
2021/03/06 14:06:09;;;;;;;5.10;3.10;;;7.10;43.10;;;;;;6199481;23;20422;-93
2021/03/06 14:08:37;;;;;;;6.00;3.05;;;6.90;42.90;;;;;;6190742;23;20412;-93
2021/03/06 14:11:07;;;;;;;9.35;3.55;;;6.50;42.20;;;;;;6191735;23;20399;-91
2021/03/06 14:13:35;;;;;;;6.55;3.03;;;6.90;44.30;;;;;;6133027;23;20438;-91
2021/03/06 14:16:03;;;;;;;4.22;3.00;;;7.50;39.70;;;;;;6161598;23;20893;-96
2021/03/06 14:18:31;;;;;;;5.60;3.25;;;8.20;37.30;;;;;;6161353;23;20377;-92
2021/03/06 14:20:58;;;;;;;5.10;3.20;;;8.50;40.30;;;;;;6162232;23;20385;-93
2021/03/06 14:23:26;;;;;;;6.10;2.80;;;8.50;36.40;;;;;;6163319;23;20389;-95
2021/03/06 14:25:53;;;;;;;5.32;3.13;;;9.10;37.60;;;;;;6153009;23;20467;-91
2021/03/06 14:28:20;;;;;;;7.23;3.10;;;9.60;35.80;;;;;;6186221;23;20438;-91
2021/03/06 14:30:48;;;;;;;5.22;2.88;;;9.50;36.80;;;;;;6181235;23;20464;-91
2021/03/06 14:33:17;;;;;;;4.22;2.80;;;9.90;32.70;;;;;;6172958;23;20404;-91
2021/03/06 14:35:44;;;;;;;4.25;2.97;;;9.90;35.50;;;;;;6161598;23;20468;-94
2021/03/06 14:38:11;;;;;;;3.85;3.08;;;9.30;35.70;;;;;;6160306;23;20396;-91
2021/03/06 14:40:38;;;;;;;4.53;2.80;;;8.80;35.30;;;;;;6160351;23;20936;-91
2021/03/06 14:43:05;;;;;;;4.77;3.33;;;8.30;34.40;;;;;;6161779;23;20457;-91
2021/03/06 14:45:32;;;;;;;5.18;3.03;;;8.10;38.10;;;;;;6162668;23;20378;-91
2021/03/06 14:47:59;;;;;;;5.65;3.65;;;7.60;39.00;;;;;;6161380;23;20460;-92
2021/03/06 14:50:26;;;;;;;6.03;3.15;;;7.90;38.10;;;;;;6161237;23;20393;-95
2021/03/06 14:52:53;;;;;;;4.20;2.92;;;8.40;37.00;;;;;;6162147;23;20360;-96
2021/03/06 14:55:22;;;;;;;5.25;2.95;;;8.30;38.20;;;;;;6164460;23;20393;-91
2021/03/06 14:57:51;;;;;;;5.55;3.10;;;8.30;37.70;;;;;;6163162;23;20431;-91
2021/03/06 15:00:19;;;;;;;6.50;3.00;;;8.30;36.50;;;;;;6163241;23;20444;-91
2021/03/06 15:02:47;;;;;;;3.95;2.60;;;7.80;38.40;;;;;;6138792;23;20878;-92
2021/03/06 15:05:17;;;;;;;4.15;2.78;;;7.10;36.40;;;;;;6176189;23;20377;-92
2021/03/06 15:07:44;;;;;;;4.43;2.70;;;6.50;38.80;;;;;;6181539;23;20385;-90
2021/03/06 15:10:12;;;;;;;5.05;3.13;;;6.50;40.00;;;;;;6140061;23;20385;-92
2021/03/06 15:12:42;;;;;;;4.90;2.90;;;6.70;40.00;;;;;;6162562;23;20394;-96
2021/03/06 15:15:10;;;;;;;4.63;2.75;;;6.80;42.80;;;;;;6163270;23;20382;-90
2021/03/06 15:17:37;;;;;;;3.95;2.70;;;7.90;39.00;;;;;;6163601;23;20699;-90
2021/03/06 15:20:06;;;;;;;4.10;2.97;;;8.60;36.30;;;;;;6162612;23;20413;-90
2021/03/06 15:22:33;;;;;;;4.78;2.90;;;8.20;35.40;;;;;;6162586;23;20393;-91
2021/03/06 15:25:00;;;;;;;4.97;3.00;;;8.10;37.90;;;;;;6162793;23;20385;-96
2021/03/06 15:27:28;;;;;;;5.35;3.13;;;8.40;38.40;;;;;;6164328;23;20389;-94
2021/03/06 15:29:55;;;;;;;5.17;3.50;;;9.20;36.90;;;;;;6165039;23;20404;-91
2021/03/06 15:32:22;;;;;;;6.05;3.25;;;9.70;35.70;;;;;;6164848;23;20377;-90
2021/03/06 15:35:04;;;;;;;4.55;3.30;;;9.90;33.30;;;;;;6166509;23;20404;-90
2021/03/06 15:37:31;;;;;;;5.07;3.33;;;9.30;36.20;;;;;;6164645;23;20449;-92
2021/03/06 15:39:58;;;;;;;3.60;2.90;;;8.80;37.40;;;;;;6165023;23;20379;-91
2021/03/06 15:42:25;;;;;;;5.35;2.90;;;8.80;39.50;;;;;;6165468;23;20400;-95
2021/03/06 15:44:53;;;;;;;4.00;2.97;;;9.40;37.90;;;;;;6165884;23;20815;-92
2021/03/06 15:47:20;;;;;;;4.32;2.88;;;9.70;34.80;;;;;;6141442;23;20397;-96
2021/03/06 15:49:49;;;;;;;4.07;2.90;;;9.30;34.00;;;;;;6190326;23;20385;-90
2021/03/06 15:52:17;;;;;;;5.03;3.20;;;8.20;36.00;;;;;;6163164;23;20385;-92
2021/03/06 15:54:43;;;;;;;4.53;3.10;;;7.90;39.60;;;;;;6163808;23;20394;-92
2021/03/06 15:57:11;;;;;;;4.50;2.88;;;8.40;39.00;;;;;;6190464;23;20393;-92
2021/03/06 15:59:38;;;;;;;3.55;2.78;;;8.60;37.00;;;;;;6164463;23;20885;-96
2021/03/06 16:02:05;;;;;;;4.88;2.88;;;8.50;36.20;;;;;;6166925;23;20477;-91
2021/03/06 16:04:34;;;;;;;4.75;2.78;;;8.20;37.10;;;;;;6181181;23;20377;-90
2021/03/06 16:07:02;;;;;;;4.30;2.88;;;7.90;37.70;;;;;;6185278;23;20390;-90
2021/03/06 16:09:29;;;;;;;5.78;3.10;;;7.70;38.60;;;;;;6200765;23;20379;-91
2021/03/06 16:11:56;;;;;;;4.60;2.97;;;7.30;38.30;;;;;;6167261;23;20391;-92
2021/03/06 16:14:23;;;;;;;5.65;3.03;;;7.10;41.00;;;;;;6165121;23;20373;-91
2021/03/06 16:16:50;;;;;;;4.43;2.77;;;7.10;42.50;;;;;;6166495;23;20440;-91
2021/03/06 16:19:22;;;;;;;6.03;2.85;;;7.40;40.60;;;;;;6193407;23;20381;-94
2021/03/06 16:24:35;;;;;;;5.53;3.03;;;7.40;42.40;;;;;;6228817;23;20478;-96
2021/03/06 16:27:14;;;;;;;5.30;3.25;;;7.80;42.10;;;;;;6206067;23;20375;-94
2021/03/06 16:30:32;;;;;;;6.13;3.73;;;7.80;41.00;;;;;;6228313;22;20486;-94
2021/03/06 16:33:23;;;;;;;6.40;4.07;;;6.80;43.10;;;;;;6193114;23;20475;-95
2021/03/06 16:36:19;;;;;;;6.18;3.60;;;5.80;44.80;;;;;;6223937;23;20403;-94
2021/03/06 16:38:55;;;;;;;5.87;3.47;;;5.50;48.80;;;;;;6201271;23;20426;-96
2021/03/06 16:42:11;;;;;;;5.93;3.50;;;5.40;49.60;;;;;;6187401;22;20415;-94
2021/03/06 16:45:31;;;;;;;7.03;3.58;;;5.10;49.70;;;;;;6188664;23;20425;-94
2021/03/06 16:48:43;;;;;;;3.93;3.20;;;4.70;49.90;;;;;;6232769;23;20427;-94
2021/03/06 16:51:43;;;;;;;6.53;3.63;;;4.20;52.00;;;;;;6210136;23;20394;-95
2021/03/06 16:54:30;;;;;;;8.27;3.70;;;3.40;55.00;;;;;;6207326;23;20379;-96
2021/03/06 16:57:05;;;;;;;6.38;4.00;;;2.60;56.70;;;;;;6233616;23;20392;-96
2021/03/06 17:14:26;;;;;;;9.90;4.57;;;-0.60;69.70;;;;;;6084235;23;20452;-96
2021/03/06 17:21:36;;;;;;;6.88;4.53;;;-1.10;72.50;;;;;;5918627;24;20411;-95
2021/03/06 17:25:07;;;;;;;9.40;4.95;;;-1.30;73.80;;;;;;5891986;24;20464;-96
2021/03/06 17:28:34;;;;;;;7.60;4.88;;;-1.30;74.20;;;;;;5887092;24;20497;-95
2021/03/06 17:31:55;;;;;;;5.90;4.28;;;-1.50;75.40;;;;;;5890261;24;20403;-96
2021/03/06 17:35:46;;;;;;;7.13;4.60;;;-1.60;75.60;;;;;;5895267;24;20399;-93
2021/03/06 17:50:16;;;;;;;6.57;4.50;;;-2.00;77.00;;;;;;6192288;23;20475;-96
2021/03/06 17:52:58;;;;;;;7.10;4.65;;;-2.00;77.00;;;;;;6197574;23;20414;-93
2021/03/06 17:55:32;;;;;;;8.93;4.90;;;-2.00;76.50;;;;;;6198457;23;20382;-95
2021/03/06 17:58:08;;;;;;;6.68;4.00;;;-2.00;76.80;;;;;;6204580;23;20475;-95
2021/03/06 18:03:38;;;;;;;6.65;4.45;;;-2.10;76.40;;;;;;6197999;22;20413;-96
2021/03/06 18:06:13;;;;;;;7.47;4.53;;;-2.10;76.60;;;;;;6196852;23;20479;-93
2021/03/06 18:08:40;;;;;;;8.57;4.93;;;-2.10;76.80;;;;;;6189600;23;20475;-94
2021/03/06 18:11:07;;;;;;;8.15;5.03;;;-2.10;77.10;;;;;;6190110;23;20883;-93
2021/03/06 18:13:34;;;;;;;6.90;4.40;;;-2.10;77.80;;;;;;6190350;23;20394;-95
2021/03/06 18:16:01;;;;;;;7.00;4.78;;;-2.10;77.90;;;;;;6191050;23;20387;-94
2021/03/06 18:18:28;;;;;;;11.00;5.82;;;-2.10;80.70;;;;;;6195721;23;20387;-91
2021/03/06 18:21:18;;;;;;;7.95;5.20;;;-2.20;81.60;;;;;;6196998;23;20399;-95
2021/03/06 18:24:00;;;;;;;8.07;4.70;;;-2.20;82.30;;;;;;6202935;23;20442;-95
2021/03/06 18:26:37;;;;;;;7.03;4.87;;;-2.10;83.00;;;;;;6180922;23;20410;-94
2021/03/06 18:29:10;;;;;;;8.77;5.07;;;-2.20;84.20;;;;;;6175243;23;20413;-93
2021/03/06 18:31:41;;;;;;;8.55;5.30;;;-2.30;85.00;;;;;;6158313;23;20447;-96
2021/03/06 18:34:23;;;;;;;7.82;5.03;;;-2.30;85.80;;;;;;6189545;23;20673;-96
2021/03/06 18:36:51;;;;;;;10.93;5.32;;;-2.20;85.90;;;;;;6194192;23;20419;-95
2021/03/06 18:39:19;;;;;;;8.45;5.07;;;-2.20;86.10;;;;;;6170110;23;20394;-96
2021/03/06 18:41:46;;;;;;;8.65;5.22;;;-2.20;86.50;;;;;;6191503;23;20457;-95
2021/03/06 18:44:15;;;;;;;8.33;5.20;;;-2.30;86.80;;;;;;6177543;23;20387;-91
2021/03/06 18:46:43;;;;;;;7.65;4.72;;;-2.30;86.80;;;;;;6195155;23;20478;-95
2021/03/06 18:49:10;;;;;;;9.40;5.15;;;-2.30;87.10;;;;;;6197256;23;20394;-96
2021/03/06 18:51:37;;;;;;;8.60;5.30;;;-2.30;87.30;;;;;;6217178;23;20379;-93
2021/03/06 18:54:05;;;;;;;9.25;4.88;;;-2.30;87.40;;;;;;6214764;23;20398;-94
2021/03/06 18:56:32;;;;;;;11.65;5.35;;;-2.30;88.00;;;;;;6193201;23;20470;-92
2021/03/06 18:58:59;;;;;;;10.13;5.35;;;-2.30;88.10;;;;;;6192330;23;20394;-91
2021/03/06 19:01:25;;;;;;;10.48;6.30;;;-2.30;88.10;;;;;;6170639;23;20493;-96
2021/03/06 19:03:52;;;;;;;8.55;4.97;;;-2.30;88.40;;;;;;6199920;23;20395;-96
2021/03/06 19:06:23;;;;;;;10.23;5.20;;;-2.30;88.70;;;;;;6210242;23;20431;-92
2021/03/06 19:14:54;;;;;;;11.70;6.40;;;-2.40;89.10;;;;;;6232647;23;20466;-96
2021/03/06 19:17:31;;;;;;;12.18;5.93;;;-2.60;89.20;;;;;;6232819;23;20398;-94
2021/03/06 19:20:19;;;;;;;11.25;6.85;;;-2.60;89.60;;;;;;6233458;23;20402;-95
2021/03/06 19:22:47;;;;;;;11.75;6.88;;;-2.60;89.90;;;;;;6226298;23;20402;-94
2021/03/06 19:25:15;;;;;;;11.73;6.75;;;-2.70;90.00;;;;;;6200840;23;20410;-95
2021/03/06 19:30:39;;;;;;;11.32;6.70;;;-2.90;90.80;;;;;;6199765;23;20412;-96
2021/03/06 19:33:23;;;;;;;10.47;6.57;;;-3.00;91.40;;;;;;6168234;23;20373;-96
2021/03/06 19:35:50;;;;;;;10.80;6.43;;;-3.00;91.90;;;;;;6191547;23;20397;-96
2021/03/06 19:38:27;;;;;;;12.60;6.43;;;-3.00;92.20;;;;;;6193104;23;20456;-96
2021/03/06 19:41:08;;;;;;;12.00;6.20;;;-2.90;92.20;;;;;;6190124;23;20786;-94
2021/03/06 19:43:35;;;;;;;11.10;6.68;;;-2.80;92.20;;;;;;6187351;23;20791;-91
2021/03/06 19:46:03;;;;;;;10.77;6.63;;;-2.80;92.40;;;;;;6187567;23;20850;-94
2021/03/06 19:48:29;;;;;;;12.48;6.90;;;-2.80;92.20;;;;;;6165040;23;20473;-96
2021/03/06 19:50:57;;;;;;;10.07;6.40;;;-2.80;92.20;;;;;;6188988;23;20385;-94
2021/03/06 19:53:25;;;;;;;9.85;5.78;;;-2.80;92.50;;;;;;6190452;23;20385;-95
2021/03/06 19:55:53;;;;;;;10.48;6.18;;;-2.90;92.50;;;;;;6196833;23;20400;-94
2021/03/06 19:58:22;;;;;;;11.38;6.20;;;-2.90;92.60;;;;;;6193814;23;20461;-90
2021/03/06 20:00:49;;;;;;;8.88;6.00;;;-2.80;92.50;;;;;;6189482;23;20397;-94
2021/03/06 20:03:16;;;;;;;11.43;6.10;;;-2.90;92.70;;;;;;6191577;23;20397;-96
2021/03/06 20:05:43;;;;;;;9.43;6.32;;;-3.00;92.70;;;;;;6190603;23;20385;-91
2021/03/06 20:08:24;;;;;;;9.88;6.22;;;-2.90;92.70;;;;;;6193264;23;20552;-93
2021/03/06 20:10:52;;;;;;;10.68;6.03;;;-3.00;92.80;;;;;;6191290;23;20397;-95
2021/03/06 20:13:21;;;;;;;8.48;5.90;;;-3.00;92.80;;;;;;6192990;23;20424;-91
2021/03/06 20:15:49;;;;;;;13.63;5.88;;;-3.00;92.80;;;;;;6193381;23;20458;-96
2021/03/06 20:18:19;;;;;;;12.45;6.47;;;-3.00;92.80;;;;;;6168985;23;20392;-90
2021/03/06 20:20:48;;;;;;;10.82;5.88;;;-3.10;92.90;;;;;;6168927;23;20389;-96
2021/03/06 20:23:15;;;;;;;9.60;5.78;;;-3.10;92.90;;;;;;6193890;23;20421;-92
2021/03/06 20:25:54;;;;;;;9.35;5.75;;;-3.20;92.70;;;;;;6195724;23;20719;-95
2021/03/06 20:28:23;;;;;;;11.77;6.40;;;-3.30;92.80;;;;;;6192297;23;20395;-95
2021/03/06 20:30:50;;;;;;;10.65;5.65;;;-3.40;93.00;;;;;;6167835;23;20441;-90
2021/03/06 20:33:20;;;;;;;10.53;5.90;;;-3.30;93.10;;;;;;6193911;23;20405;-95
2021/03/06 20:36:12;;;;;;;13.35;6.43;;;-3.40;92.60;;;;;;6175229;23;20374;-91
2021/03/06 20:38:43;;;;;;;9.73;6.00;;;-3.40;92.60;;;;;;6200941;23;20389;-89
2021/03/06 20:41:11;;;;;;;11.23;5.63;;;-3.60;92.40;;;;;;6209395;23;20405;-90
2021/03/06 20:43:44;;;;;;;10.50;5.78;;;-3.60;92.20;;;;;;6210773;23;20408;-93
2021/03/06 20:46:10;;;;;;;9.23;5.57;;;-3.60;92.60;;;;;;6211545;23;20401;-93
2021/03/06 20:48:38;;;;;;;8.65;5.30;;;-3.50;92.40;;;;;;6199287;23;20382;-93
2021/03/06 20:51:09;;;;;;;9.70;5.60;;;-3.50;92.00;;;;;;6194555;23;20471;-94
2021/03/06 20:53:38;;;;;;;8.20;4.95;;;-3.50;92.00;;;;;;6192510;23;20424;-91
2021/03/06 20:56:05;;;;;;;8.87;5.23;;;-3.50;91.60;;;;;;6190754;23;20420;-94
2021/03/06 20:58:33;;;;;;;8.60;5.40;;;-3.60;91.40;;;;;;6192607;23;20417;-95
2021/03/06 21:01:00;;;;;;;9.57;5.45;;;-3.60;91.70;;;;;;6198554;23;20424;-95
2021/03/06 21:03:27;;;;;;;7.50;4.57;;;-3.60;91.20;;;;;;6165293;23;20416;-91
2021/03/06 21:05:54;;;;;;;8.38;4.78;;;-3.50;90.70;;;;;;6188861;23;20440;-95
2021/03/06 21:08:25;;;;;;;8.68;5.18;;;-3.50;90.40;;;;;;6190540;23;20389;-90
2021/03/06 21:10:52;;;;;;;9.32;4.93;;;-3.50;90.00;;;;;;6188967;23;20411;-90
2021/03/06 21:13:19;;;;;;;11.70;4.95;;;-3.50;89.50;;;;;;6195938;23;20474;-92
2021/03/06 21:15:49;;;;;;;7.95;4.93;;;-3.50;89.40;;;;;;6211724;23;20377;-92
2021/03/06 21:18:16;;;;;;;7.15;4.45;;;-3.50;88.70;;;;;;6210878;23;20364;-92
2021/03/06 21:20:44;;;;;;;7.20;4.75;;;-3.60;88.60;;;;;;6210368;23;20394;-92
2021/03/06 21:23:13;;;;;;;9.38;4.80;;;-3.50;88.20;;;;;;6173489;23;20432;-94
2021/03/06 21:25:44;;;;;;;7.85;4.65;;;-3.50;87.10;;;;;;6166069;23;20393;-95
2021/03/06 21:28:23;;;;;;;8.30;4.45;;;-3.40;86.80;;;;;;6194118;23;20489;-95
2021/03/06 21:30:50;;;;;;;8.23;4.57;;;-3.40;85.50;;;;;;6193201;23;20750;-94
2021/03/06 21:33:17;;;;;;;6.65;4.15;;;-3.30;84.40;;;;;;6187477;23;20897;-95
2021/03/06 21:35:45;;;;;;;9.43;4.25;;;-3.20;83.50;;;;;;6169133;23;20384;-95
2021/03/06 21:38:20;;;;;;;6.65;4.00;;;-3.30;83.90;;;;;;6226469;23;20387;-90
2021/03/06 21:41:00;;;;;;;8.13;4.18;;;-3.30;83.10;;;;;;6201705;23;20434;-89
2021/03/06 21:43:27;;;;;;;6.28;4.25;;;-3.40;83.30;;;;;;6203391;23;20375;-95
2021/03/06 21:46:01;;;;;;;7.82;4.47;;;-3.30;83.60;;;;;;6233102;23;20380;-90
2021/03/06 21:49:15;;;;;;;7.03;4.20;;;-3.30;83.60;;;;;;6208582;23;20368;-91
2021/03/06 21:51:58;;;;;;;8.03;4.60;;;-3.40;83.60;;;;;;6161271;23;20395;-89
2021/03/06 21:54:27;;;;;;;6.68;4.30;;;-3.30;83.10;;;;;;6218111;23;20415;-93
2021/03/06 21:56:53;;;;;;;7.18;4.18;;;-3.20;83.30;;;;;;6190251;23;20398;-91
2021/03/06 21:59:20;;;;;;;7.88;4.45;;;-3.40;82.90;;;;;;6191105;23;20426;-95
2021/03/06 22:01:47;;;;;;;8.40;4.30;;;-3.40;83.60;;;;;;6191404;23;20395;-95
2021/03/06 22:04:14;;;;;;;7.93;4.23;;;-3.50;84.30;;;;;;6191939;23;20849;-94
2021/03/06 22:06:41;;;;;;;7.67;4.00;;;-3.50;85.10;;;;;;6192189;23;20371;-92
2021/03/06 22:09:09;;;;;;;4.97;3.75;;;-3.50;85.70;;;;;;6190494;23;20386;-94
2021/03/06 22:11:36;;;;;;;7.13;4.20;;;-3.50;85.60;;;;;;6190986;23;20417;-87
2021/03/06 22:14:03;;;;;;;6.60;3.58;;;-3.50;86.20;;;;;;6197742;23;20398;-91